createdAt,value
2022-11-22T00:00:31.791Z,1.60
2022-11-22T00:03:00.181Z,1.40
2022-11-22T00:05:28.605Z,1.47
2022-11-22T00:07:56.993Z,1.50
2022-11-22T00:10:25.421Z,1.60
2022-11-22T00:12:55.549Z,1.50
2022-11-22T00:15:23.886Z,1.70
2022-11-22T00:17:52.176Z,2.07
2022-11-22T00:20:20.580Z,1.50
2022-11-22T00:22:48.948Z,1.40
2022-11-22T00:25:17.371Z,1.97
2022-11-22T00:27:46.447Z,1.43
2022-11-22T00:30:17.214Z,1.50
2022-11-22T00:32:45.556Z,1.37
2022-11-22T00:35:14.304Z,1.60
2022-11-22T00:37:43.517Z,1.47
2022-11-22T00:40:12.682Z,1.57
2022-11-22T00:42:40.982Z,1.80
2022-11-22T00:45:10.311Z,1.50
2022-11-22T00:47:40.056Z,1.40
2022-11-22T00:50:10.856Z,1.83
2022-11-22T00:52:39.372Z,1.80
2022-11-22T00:55:08.777Z,1.67
2022-11-22T00:57:37.233Z,1.73
2022-11-22T01:00:07.551Z,2.07
2022-11-22T01:02:36.102Z,1.70
2022-11-22T01:05:06.691Z,1.77
2022-11-22T01:07:36.171Z,1.73
2022-11-22T01:10:04.912Z,2.00
2022-11-22T01:12:33.298Z,2.10
2022-11-22T01:15:01.640Z,1.97
2022-11-22T01:17:30.172Z,1.93
2022-11-22T01:19:58.622Z,1.97
2022-11-22T01:22:31.524Z,1.93
2022-11-22T01:25:00.126Z,1.90
2022-11-22T01:27:28.690Z,2.07
2022-11-22T01:29:57.199Z,1.90
2022-11-22T01:32:25.596Z,2.00
2022-11-22T01:34:54.104Z,1.77
2022-11-22T01:37:22.772Z,1.73
2022-11-22T01:39:52.597Z,1.70
2022-11-22T01:42:21.170Z,1.50
2022-11-22T01:44:51.783Z,1.80
2022-11-22T01:47:22.128Z,1.47
2022-11-22T01:49:56.095Z,1.80
2022-11-22T01:52:27.274Z,1.97
2022-11-22T01:54:59.481Z,2.10
2022-11-22T01:57:34.811Z,2.13
2022-11-22T02:00:07.980Z,1.60
2022-11-22T02:02:43.148Z,2.43
2022-11-22T02:05:16.784Z,2.00
2022-11-22T02:07:51.859Z,1.90
2022-11-22T02:10:24.541Z,1.93
2022-11-22T02:12:54.369Z,2.30
2022-11-22T02:15:22.856Z,2.20
2022-11-22T02:17:51.283Z,2.10
2022-11-22T02:20:19.948Z,2.40
2022-11-22T02:22:56.882Z,2.63
2022-11-22T02:25:31.455Z,1.90
2022-11-22T02:28:01.520Z,2.27
2022-11-22T02:30:29.898Z,2.20
2022-11-22T02:32:58.348Z,2.77
2022-11-22T02:35:30.011Z,2.27
2022-11-22T02:38:00.938Z,2.37
2022-11-22T02:40:34.198Z,2.20
2022-11-22T02:43:06.996Z,2.40
2022-11-22T02:45:35.528Z,2.87
2022-11-22T02:48:09.728Z,2.30
2022-11-22T02:50:38.254Z,2.03
2022-11-22T02:53:07.753Z,2.70
2022-11-22T02:55:36.459Z,2.47
2022-11-22T02:58:06.874Z,2.60
2022-11-22T03:00:36.718Z,2.40
2022-11-22T03:03:05.604Z,2.10
2022-11-22T03:05:34.006Z,2.37
2022-11-22T03:08:02.333Z,2.30
2022-11-22T03:10:30.828Z,2.53
2022-11-22T03:12:59.679Z,2.90
2022-11-22T03:15:29.388Z,2.70
2022-11-22T03:18:01.628Z,2.73
2022-11-22T03:20:30.796Z,2.40
2022-11-22T03:23:01.784Z,2.80
2022-11-22T03:25:30.284Z,3.13
2022-11-22T03:28:13.921Z,3.20
2022-11-22T03:30:43.948Z,2.53
2022-11-22T03:33:12.451Z,2.70
2022-11-22T03:35:40.875Z,3.00
2022-11-22T03:38:09.397Z,2.57
2022-11-22T03:40:37.748Z,2.60
2022-11-22T03:43:06.124Z,2.57
2022-11-22T03:45:34.652Z,2.70
2022-11-22T03:48:18.282Z,2.70
2022-11-22T03:50:50.482Z,3.00
2022-11-22T03:53:19.390Z,2.97
2022-11-22T03:55:48.385Z,2.50
2022-11-22T03:58:17.597Z,2.50
2022-11-22T04:00:49.025Z,2.80
2022-11-22T04:03:19.249Z,2.80
2022-11-22T04:05:47.615Z,2.57
2022-11-22T04:08:16.061Z,3.10
2022-11-22T04:10:44.413Z,3.10
2022-11-22T04:13:12.804Z,2.70
2022-11-22T04:15:40.206Z,2.67
2022-11-22T04:18:10.752Z,2.97
2022-11-22T04:20:58.333Z,3.07
2022-11-22T04:23:33.727Z,2.60
2022-11-22T04:26:01.726Z,2.70
2022-11-22T04:28:54.066Z,2.60
2022-11-22T04:31:37.254Z,2.77
2022-11-22T04:34:05.817Z,2.87
2022-11-22T04:36:35.665Z,2.33
2022-11-22T04:39:04.252Z,2.40
2022-11-22T04:41:32.741Z,2.57
2022-11-22T04:44:18.560Z,2.73
2022-11-22T04:46:46.896Z,2.93
2022-11-22T04:49:15.444Z,3.27
2022-11-22T04:52:02.821Z,3.40
2022-11-22T04:54:31.353Z,3.03
2022-11-22T04:56:59.777Z,3.50
2022-11-22T04:59:28.550Z,2.97
2022-11-22T05:01:57.177Z,3.20
2022-11-22T05:04:25.594Z,2.90
2022-11-22T05:06:56.867Z,3.10
2022-11-22T05:09:25.300Z,2.87
2022-11-22T05:11:53.778Z,2.67
2022-11-22T05:14:22.522Z,3.67
2022-11-22T05:16:51.108Z,3.00
2022-11-22T05:19:19.573Z,3.43
2022-11-22T05:21:48.001Z,2.80
2022-11-22T05:24:16.935Z,2.87
2022-11-22T05:26:45.514Z,3.33
2022-11-22T05:29:13.945Z,2.67
2022-11-22T05:31:46.871Z,3.20
2022-11-22T05:34:18.834Z,2.63
2022-11-22T05:36:47.259Z,2.70
2022-11-22T05:39:17.366Z,2.53
2022-11-22T05:41:56.027Z,2.87
2022-11-22T05:44:25.104Z,2.37
2022-11-22T05:46:53.727Z,2.50
2022-11-22T05:49:22.313Z,2.93
2022-11-22T05:51:50.848Z,2.00
2022-11-22T05:54:20.689Z,2.33
2022-11-22T05:56:49.241Z,2.30
2022-11-22T05:59:17.672Z,2.20
2022-11-22T06:01:46.158Z,2.37
2022-11-22T06:04:14.960Z,2.00
2022-11-22T06:06:43.416Z,1.90
2022-11-22T06:09:11.852Z,2.30
2022-11-22T06:11:41.792Z,2.10
2022-11-22T06:14:10.900Z,2.27
2022-11-22T06:16:39.390Z,2.00
2022-11-22T06:19:07.941Z,2.33
2022-11-22T06:21:36.279Z,2.13
2022-11-22T06:24:04.844Z,2.40
2022-11-22T06:26:38.897Z,2.20
2022-11-22T06:29:09.579Z,2.30
2022-11-22T06:31:38.240Z,2.23
2022-11-22T06:34:06.890Z,2.30
2022-11-22T06:36:36.083Z,2.20
2022-11-22T06:39:04.960Z,2.13
2022-11-22T06:41:35.263Z,2.57
2022-11-22T06:44:06.833Z,2.50
2022-11-22T22:31:05.570Z,4.47
2022-11-22T22:33:34.605Z,4.60
2022-11-22T22:36:03.594Z,4.70
2022-11-22T22:38:33.310Z,4.80
2022-11-22T22:41:03.800Z,4.80
2022-11-22T22:43:33.910Z,4.60
2022-11-22T22:46:06.960Z,4.63
2022-11-22T22:48:35.860Z,5.00
2022-11-22T22:51:09.234Z,5.10
2022-11-22T22:53:37.780Z,5.53
2022-11-22T22:56:07.266Z,5.33
2022-11-22T22:58:35.875Z,5.03
2022-11-22T23:01:10.809Z,5.50
2022-11-22T23:03:39.664Z,5.47
2022-11-22T23:06:09.733Z,4.97
2022-11-22T23:08:39.758Z,5.13
2022-11-22T23:11:10.246Z,4.90
2022-11-22T23:13:40.867Z,5.37
2022-11-22T23:16:13.359Z,5.33
2022-11-22T23:18:43.391Z,5.10
2022-11-22T23:21:28.326Z,5.43
2022-11-22T23:23:57.082Z,4.93
2022-11-22T23:26:25.610Z,5.23
2022-11-22T23:28:54.342Z,5.07
2022-11-22T23:31:24.262Z,4.77
2022-11-22T23:33:53.017Z,5.00
2022-11-22T23:36:23.342Z,5.43
2022-11-22T23:38:52.090Z,5.23
2022-11-22T23:41:23.524Z,4.60
2022-11-22T23:43:54.465Z,5.17
2022-11-22T23:46:28.181Z,5.03
2022-11-22T23:48:58.709Z,5.20
2022-11-22T23:51:28.812Z,4.50
2022-11-22T23:53:58.386Z,5.67
2022-11-22T23:56:28.035Z,5.07
2022-11-22T23:58:57.029Z,5.17
